createdAt,value
2023-02-21T00:00:23.659Z,8.08
2023-02-21T00:01:44.431Z,8.07
2023-02-21T00:03:05.394Z,8.06
2023-02-21T00:04:26.251Z,8.05
2023-02-21T00:05:47.183Z,8.05
2023-02-21T00:07:08.229Z,8.04
2023-02-21T00:08:29.066Z,8.03
2023-02-21T00:09:50.020Z,8.01
2023-02-21T00:11:10.949Z,8.00
2023-02-21T00:12:32.169Z,7.99
2023-02-21T00:13:57.083Z,7.99
2023-02-21T00:15:17.692Z,7.98
2023-02-21T00:16:38.604Z,7.98
2023-02-21T00:17:59.236Z,7.98
2023-02-21T00:19:19.978Z,7.97
2023-02-21T00:20:41.096Z,7.97
2023-02-21T00:22:02.086Z,7.97
2023-02-21T00:23:23.070Z,7.97
2023-02-21T00:24:43.979Z,7.97
2023-02-21T00:26:04.920Z,7.97
2023-02-21T00:27:25.654Z,7.97
2023-02-21T00:28:46.547Z,7.97
2023-02-21T00:30:08.407Z,7.97
2023-02-21T00:31:29.268Z,7.97
2023-02-21T00:32:50.615Z,7.98
2023-02-21T00:34:11.920Z,7.98
2023-02-21T00:35:32.632Z,7.98
2023-02-21T00:36:53.691Z,7.97
2023-02-21T00:38:14.353Z,7.97
2023-02-21T00:39:35.366Z,7.97
2023-02-21T00:40:56.631Z,7.97
2023-02-21T00:42:17.344Z,7.98
2023-02-21T00:43:38.084Z,7.98
2023-02-21T00:44:58.814Z,7.99
2023-02-21T00:46:19.663Z,7.99
2023-02-21T00:47:40.218Z,8.00
2023-02-21T00:49:01.174Z,8.00
2023-02-21T00:50:21.957Z,8.01
2023-02-21T00:51:42.744Z,8.01
2023-02-21T00:53:03.413Z,8.02
2023-02-21T00:54:24.016Z,8.03
2023-02-21T00:55:44.880Z,8.03
2023-02-21T00:57:05.748Z,8.04
2023-02-21T00:58:26.590Z,8.05
2023-02-21T00:59:47.862Z,8.06
2023-02-21T01:01:11.243Z,8.07
2023-02-21T01:02:31.771Z,8.08
2023-02-21T01:03:53.197Z,8.08
2023-02-21T01:05:14.055Z,8.08
2023-02-21T01:06:34.979Z,8.08
2023-02-21T01:07:56.514Z,8.07
2023-02-21T01:09:17.469Z,8.07
2023-02-21T01:10:38.854Z,8.07
2023-02-21T01:11:59.852Z,8.07
2023-02-21T01:13:20.928Z,8.07
2023-02-21T01:14:41.548Z,8.06
2023-02-21T01:16:02.742Z,8.06
2023-02-21T01:17:23.913Z,8.06
2023-02-21T01:18:44.572Z,8.06
2023-02-21T01:20:05.515Z,8.05
2023-02-21T01:21:31.743Z,8.05
2023-02-21T01:22:52.863Z,8.04
2023-02-21T01:24:13.951Z,8.03
2023-02-21T01:25:34.835Z,8.03
2023-02-21T01:26:55.842Z,8.02
2023-02-21T01:28:16.626Z,8.01
2023-02-21T01:29:37.437Z,8.01
2023-02-21T01:30:58.179Z,8.01
2023-02-21T01:32:18.891Z,8.00
2023-02-21T01:33:39.947Z,7.99
2023-02-21T01:35:00.539Z,7.99
2023-02-21T01:36:24.129Z,7.99
2023-02-21T01:37:45.082Z,7.98
2023-02-21T01:39:05.704Z,7.97
2023-02-21T01:40:27.249Z,7.97
2023-02-21T01:41:47.862Z,7.97
2023-02-21T01:43:08.845Z,7.96
2023-02-21T01:45:02.950Z,7.96
2023-02-21T01:46:24.464Z,7.95
2023-02-21T01:47:45.911Z,7.95
2023-02-21T01:49:08.153Z,7.95
2023-02-21T01:50:42.519Z,7.95
2023-02-21T01:52:03.844Z,7.94
2023-02-21T01:53:42.862Z,7.93
2023-02-21T01:55:07.913Z,7.93
2023-02-21T01:56:29.614Z,7.92
2023-02-21T01:57:52.425Z,7.92
2023-02-21T01:59:16.932Z,7.91
2023-02-21T02:01:07.341Z,7.90
2023-02-21T02:02:58.043Z,7.89
2023-02-21T02:04:20.137Z,7.89
2023-02-21T02:05:41.680Z,7.87
2023-02-21T02:07:02.484Z,7.86
2023-02-21T02:08:23.685Z,7.84
2023-02-21T02:09:44.432Z,7.83
2023-02-21T02:11:10.583Z,7.80
2023-02-21T02:12:31.201Z,7.78
2023-02-21T02:13:45.832Z,7.76
2023-02-21T02:15:00.008Z,7.74
2023-02-21T02:16:21.822Z,7.72
2023-02-21T02:17:45.328Z,7.70
2023-02-21T02:19:08.631Z,7.68
2023-02-21T02:20:17.079Z,7.66
2023-02-21T02:21:46.885Z,7.64
2023-02-21T02:22:58.086Z,7.63
2023-02-21T02:24:31.173Z,7.61
2023-02-21T02:25:45.790Z,7.59
2023-02-21T02:26:57.049Z,7.57
2023-02-21T02:28:36.153Z,7.55
2023-02-21T02:30:15.113Z,7.52
2023-02-21T02:31:45.249Z,7.50
2023-02-21T02:33:24.809Z,7.48
2023-02-21T02:34:38.352Z,7.48
2023-02-21T02:35:52.815Z,7.47
2023-02-21T02:37:10.433Z,7.47
2023-02-21T02:38:35.575Z,7.47
2023-02-21T02:39:42.355Z,7.47
2023-02-21T02:41:06.592Z,7.48
2023-02-21T02:42:15.302Z,7.48
2023-02-21T02:43:30.438Z,7.48
2023-02-21T02:44:41.295Z,7.49
2023-02-21T02:45:57.048Z,7.49
2023-02-21T02:47:02.280Z,7.50
2023-02-21T02:48:34.878Z,7.50
2023-02-21T02:49:41.477Z,7.50
2023-02-21T02:50:46.318Z,7.51
2023-02-21T02:51:51.046Z,7.51
2023-02-21T02:52:55.201Z,7.51
2023-02-21T02:53:57.934Z,7.51
2023-02-21T02:55:04.314Z,7.51
2023-02-21T02:56:11.002Z,7.51
2023-02-21T02:57:13.578Z,7.51
2023-02-21T02:58:17.452Z,7.51
2023-02-21T02:59:25.975Z,7.52
2023-02-21T03:00:29.524Z,7.53
2023-02-21T03:01:50.190Z,7.54
2023-02-21T03:03:14.493Z,7.55
2023-02-21T03:04:41.098Z,7.56
2023-02-21T03:06:17.930Z,7.58
2023-02-21T03:07:44.290Z,7.61
2023-02-21T03:08:55.185Z,7.64
2023-02-21T03:10:21.936Z,7.66
2023-02-21T03:11:25.810Z,7.70
2023-02-21T03:12:46.744Z,7.73
2023-02-21T03:13:50.088Z,7.76
2023-02-21T03:15:09.159Z,7.80
2023-02-21T03:16:24.597Z,7.83
2023-02-21T03:17:29.218Z,7.87
2023-02-21T03:18:41.541Z,7.89
2023-02-21T03:19:46.417Z,7.93
2023-02-21T03:20:55.144Z,7.97
2023-02-21T03:22:07.389Z,8.02
2023-02-21T03:23:13.527Z,8.07
2023-02-21T03:24:18.706Z,8.13
2023-02-21T03:25:23.500Z,8.19
2023-02-21T03:26:28.061Z,8.25
2023-02-21T03:27:32.052Z,8.31
2023-02-21T03:28:35.396Z,8.36
2023-02-21T03:29:39.789Z,8.43
2023-02-21T03:30:42.603Z,8.49
2023-02-21T03:31:49.368Z,8.54
2023-02-21T03:32:53.314Z,8.60
2023-02-21T03:33:56.138Z,8.65
2023-02-21T03:34:58.651Z,8.70
2023-02-21T03:36:05.530Z,8.75
2023-02-21T03:37:11.148Z,8.81
2023-02-21T03:38:13.487Z,8.86
2023-02-21T03:39:15.817Z,8.91
2023-02-21T03:40:23.894Z,8.95
2023-02-21T03:41:26.322Z,8.99
2023-02-21T03:42:28.700Z,9.03
2023-02-21T03:43:31.079Z,9.07
2023-02-21T03:44:33.571Z,9.10
2023-02-21T03:45:36.465Z,9.14
2023-02-21T03:46:40.867Z,9.18
2023-02-21T03:47:43.348Z,9.20
2023-02-21T03:48:45.807Z,9.22
2023-02-21T03:49:48.195Z,9.24
2023-02-21T03:50:50.548Z,9.26
2023-02-21T03:51:52.901Z,9.27
2023-02-21T03:52:55.423Z,9.28
2023-02-21T03:53:57.811Z,9.29
2023-02-21T03:55:00.683Z,9.30
2023-02-21T03:56:03.086Z,9.32
2023-02-21T03:57:05.410Z,9.33
2023-02-21T03:58:07.794Z,9.34
2023-02-21T03:59:10.213Z,9.35
2023-02-21T04:00:14.146Z,9.36
2023-02-21T04:01:17.036Z,9.38
2023-02-21T04:02:20.006Z,9.39
2023-02-21T04:03:22.338Z,9.40
2023-02-21T04:04:24.678Z,9.41
2023-02-21T04:05:27.045Z,9.43
2023-02-21T04:06:29.418Z,9.44
2023-02-21T04:07:31.813Z,9.44
2023-02-21T04:08:34.200Z,9.45
2023-02-21T04:09:36.716Z,9.46
2023-02-21T04:10:51.282Z,9.47
2023-02-21T04:11:54.490Z,9.48
2023-02-21T04:12:59.263Z,9.49
2023-02-21T04:14:01.596Z,9.51
2023-02-21T04:15:04.224Z,9.51
2023-02-21T04:16:06.796Z,9.52
2023-02-21T04:17:09.370Z,9.53
2023-02-21T04:18:11.727Z,9.55
2023-02-21T04:19:14.129Z,9.56
2023-02-21T04:20:16.667Z,9.56
2023-02-21T04:21:19.230Z,9.57
2023-02-21T04:22:22.491Z,9.57
2023-02-21T04:23:24.984Z,9.57
2023-02-21T04:24:27.478Z,9.58
2023-02-21T04:25:29.828Z,9.59
2023-02-21T04:26:32.296Z,9.59
2023-02-21T04:27:37.393Z,9.59
2023-02-21T04:28:39.802Z,9.59
2023-02-21T04:29:42.178Z,9.59
2023-02-21T04:30:44.611Z,9.59
2023-02-21T04:31:47.076Z,9.58
2023-02-21T04:32:49.458Z,9.58
2023-02-21T04:33:59.494Z,9.57
2023-02-21T04:35:08.448Z,9.57
2023-02-21T04:36:11.345Z,9.56
2023-02-21T04:37:13.695Z,9.56
2023-02-21T04:38:16.137Z,9.56
2023-02-21T04:39:18.466Z,9.56
2023-02-21T04:40:20.799Z,9.56
2023-02-21T04:41:23.785Z,9.56
2023-02-21T04:42:26.165Z,9.56
2023-02-21T04:43:28.487Z,9.55
2023-02-21T04:44:30.828Z,9.54
2023-02-21T04:45:33.226Z,9.54
2023-02-21T04:46:35.724Z,9.53
2023-02-21T04:47:38.119Z,9.53
2023-02-21T04:48:40.464Z,9.53
2023-02-21T04:49:42.874Z,9.52
2023-02-21T04:50:45.358Z,9.52
2023-02-21T04:51:47.752Z,9.51
2023-02-21T04:52:50.342Z,9.51
2023-02-21T04:53:53.775Z,9.51
2023-02-21T04:54:56.101Z,9.51
2023-02-21T04:55:58.453Z,9.52
2023-02-21T04:57:00.802Z,9.52
2023-02-21T04:58:03.170Z,9.51
2023-02-21T04:59:05.693Z,9.51
2023-02-21T05:00:08.441Z,9.52
2023-02-21T05:01:12.843Z,9.52
2023-02-21T05:02:15.365Z,9.52
2023-02-21T05:03:18.335Z,9.52
2023-02-21T05:04:20.735Z,9.51
2023-02-21T05:05:23.174Z,9.50
2023-02-21T05:06:27.154Z,9.49
2023-02-21T05:07:29.809Z,9.48
2023-02-21T05:08:32.130Z,9.47
2023-02-21T05:09:34.438Z,9.45
2023-02-21T05:10:45.248Z,9.43
2023-02-21T05:11:48.133Z,9.42
2023-02-21T05:12:50.558Z,9.40
2023-02-21T05:13:53.166Z,9.39
2023-02-21T05:14:55.519Z,9.37
2023-02-21T05:15:57.830Z,9.34
2023-02-21T05:17:00.185Z,9.32
2023-02-21T05:18:02.567Z,9.29
2023-02-21T05:19:04.931Z,9.26
2023-02-21T05:20:11.776Z,9.23
2023-02-21T05:21:35.655Z,9.20
2023-02-21T05:23:04.796Z,9.17
2023-02-21T05:24:14.185Z,9.14
2023-02-21T05:25:19.622Z,9.11
2023-02-21T05:26:25.680Z,9.08
2023-02-21T05:27:28.074Z,9.05
2023-02-21T05:28:30.431Z,9.03
2023-02-21T05:29:32.786Z,8.98
2023-02-21T05:30:35.254Z,8.94
2023-02-21T05:31:37.717Z,8.90
2023-02-21T05:32:40.325Z,8.85
2023-02-21T05:33:42.679Z,8.79
2023-02-21T05:34:46.940Z,8.74
2023-02-21T05:35:49.913Z,8.68
2023-02-21T05:36:52.250Z,8.62
2023-02-21T05:37:54.622Z,8.58
2023-02-21T05:38:57.091Z,8.53
2023-02-21T05:39:59.711Z,8.47
2023-02-21T05:41:02.098Z,8.40
2023-02-21T05:42:04.466Z,8.33
2023-02-21T05:43:06.870Z,8.26
2023-02-21T05:44:09.218Z,8.20
2023-02-21T05:45:12.841Z,8.14
2023-02-21T05:46:33.003Z,8.09
2023-02-21T05:47:35.440Z,8.01
2023-02-21T05:48:37.800Z,7.96
2023-02-21T05:49:40.919Z,7.89
2023-02-21T05:50:45.041Z,7.84
2023-02-21T05:51:47.472Z,7.80
2023-02-21T05:52:49.806Z,7.75
2023-02-21T05:53:52.318Z,7.72
2023-02-21T05:54:54.730Z,7.68
2023-02-21T05:55:57.775Z,7.65
2023-02-21T05:57:00.105Z,7.62
2023-02-21T05:58:02.437Z,7.58
2023-02-21T05:59:05.094Z,7.57
2023-02-21T06:00:08.138Z,7.55
2023-02-21T06:01:11.004Z,7.54
2023-02-21T06:02:13.398Z,7.53
2023-02-21T06:03:15.818Z,7.53
2023-02-21T06:04:18.840Z,7.52
2023-02-21T06:05:22.046Z,7.52
2023-02-21T06:06:24.399Z,7.52
2023-02-21T06:07:26.762Z,7.52
2023-02-21T06:08:29.132Z,7.53
2023-02-21T06:09:31.520Z,7.54
2023-02-21T06:10:33.906Z,7.55
2023-02-21T06:11:38.147Z,7.56
2023-02-21T06:12:40.517Z,7.58
2023-02-21T06:13:42.879Z,7.60
2023-02-21T06:14:45.203Z,7.61
2023-02-21T06:15:47.647Z,7.63
2023-02-21T06:16:50.289Z,7.66
2023-02-21T06:17:52.781Z,7.69
2023-02-21T06:18:57.237Z,7.71
2023-02-21T06:19:59.705Z,7.74
2023-02-21T06:21:02.186Z,7.77
2023-02-21T06:22:04.674Z,7.80
2023-02-21T06:23:07.300Z,7.83
2023-02-21T06:24:10.691Z,7.86
2023-02-21T06:25:13.114Z,7.89
2023-02-21T06:26:19.250Z,7.93
2023-02-21T06:27:21.725Z,7.97
2023-02-21T06:28:30.577Z,8.00
2023-02-21T06:29:33.007Z,8.04
2023-02-21T06:30:35.968Z,8.08
2023-02-21T06:31:38.538Z,8.12
2023-02-21T06:32:42.520Z,8.16
2023-02-21T06:33:44.926Z,8.21
2023-02-21T06:34:47.931Z,8.26
2023-02-21T06:35:50.327Z,8.31
2023-02-21T06:36:54.180Z,8.35
2023-02-21T06:37:56.713Z,8.40
2023-02-21T06:38:59.096Z,8.44
2023-02-21T06:40:01.466Z,8.48
2023-02-21T06:41:08.396Z,8.51
2023-02-21T06:42:14.978Z,8.55
2023-02-21T06:43:18.585Z,8.59
2023-02-21T06:44:21.338Z,8.62
2023-02-21T06:45:23.735Z,8.65
2023-02-21T06:46:29.943Z,8.68
2023-02-21T06:47:33.902Z,8.71
2023-02-21T06:48:37.668Z,8.73
2023-02-21T06:49:41.360Z,8.77
2023-02-21T06:50:43.850Z,8.79
2023-02-21T06:51:47.943Z,8.82
2023-02-21T06:52:52.025Z,8.84
2023-02-21T06:53:57.145Z,8.85
2023-02-21T06:55:00.841Z,8.88
2023-02-21T06:56:04.922Z,8.90
2023-02-21T06:57:12.193Z,8.91
2023-02-21T06:58:18.444Z,8.93
2023-02-21T06:59:21.063Z,8.95
2023-02-21T07:00:27.378Z,8.96
2023-02-21T07:01:30.552Z,8.98
2023-02-21T07:02:33.116Z,9.00
2023-02-21T07:03:41.266Z,9.02
2023-02-21T07:04:43.801Z,9.05
2023-02-21T07:05:48.366Z,9.07
2023-02-21T07:06:51.733Z,9.10
2023-02-21T07:07:54.873Z,9.12
2023-02-21T07:08:57.607Z,9.15
2023-02-21T07:10:00.102Z,9.17
2023-02-21T07:11:02.758Z,9.20
2023-02-21T07:12:05.229Z,9.23
2023-02-21T07:13:07.672Z,9.26
2023-02-21T07:14:11.456Z,9.30
2023-02-21T07:15:13.846Z,9.34
2023-02-21T07:16:18.105Z,9.38
2023-02-21T07:17:20.840Z,9.42
2023-02-21T07:18:23.353Z,9.46
2023-02-21T07:19:25.806Z,9.50
2023-02-21T07:20:28.223Z,9.54
2023-02-21T07:21:30.796Z,9.57
2023-02-21T07:22:33.203Z,9.61
2023-02-21T07:23:35.673Z,9.65
2023-02-21T07:24:38.277Z,9.69
2023-02-21T07:25:40.685Z,9.74
2023-02-21T07:26:45.453Z,9.79
2023-02-21T07:27:48.674Z,9.83
2023-02-21T07:28:51.089Z,9.86
2023-02-21T07:29:53.506Z,9.90
2023-02-21T07:30:56.113Z,9.93
2023-02-21T07:31:58.611Z,9.96
2023-02-21T07:33:01.144Z,10.00
2023-02-21T07:34:03.725Z,10.03
2023-02-21T07:35:06.835Z,10.06
2023-02-21T07:36:09.592Z,10.09
2023-02-21T07:37:12.426Z,10.12
2023-02-21T07:38:22.918Z,10.16
2023-02-21T07:39:25.456Z,10.19
2023-02-21T07:40:27.825Z,10.23
2023-02-21T07:41:30.271Z,10.27
2023-02-21T07:42:35.834Z,10.30
2023-02-21T07:43:39.369Z,10.34
2023-02-21T07:44:41.800Z,10.38
2023-02-21T07:45:45.315Z,10.41
2023-02-21T07:46:50.912Z,10.45
2023-02-21T07:47:53.542Z,10.49
2023-02-21T07:48:56.974Z,10.53
2023-02-21T07:49:59.895Z,10.57
2023-02-21T07:51:04.392Z,10.60
2023-02-21T07:52:08.821Z,10.65
2023-02-21T07:53:13.284Z,10.69
2023-02-21T07:54:16.970Z,10.72
2023-02-21T07:55:19.375Z,10.77
2023-02-21T07:56:22.270Z,10.81
2023-02-21T07:57:25.162Z,10.85
2023-02-21T07:58:27.642Z,10.89
2023-02-21T07:59:30.127Z,10.93
2023-02-21T08:00:32.748Z,10.97
2023-02-21T08:01:35.276Z,11.01
2023-02-21T08:02:37.706Z,11.04
2023-02-21T08:03:41.079Z,11.08
2023-02-21T08:04:43.528Z,11.10
2023-02-21T08:05:47.015Z,11.13
2023-02-21T08:06:49.537Z,11.16
2023-02-21T08:07:52.560Z,11.19
2023-02-21T08:08:55.884Z,11.21
2023-02-21T08:09:58.330Z,11.24
2023-02-21T08:11:00.796Z,11.26
2023-02-21T08:12:03.704Z,11.29
2023-02-21T08:13:06.550Z,11.31
2023-02-21T08:14:08.884Z,11.33
2023-02-21T08:15:11.447Z,11.35
2023-02-21T08:16:14.413Z,11.37
2023-02-21T08:17:17.003Z,11.39
2023-02-21T08:18:24.590Z,11.42
2023-02-21T08:19:27.180Z,11.45
2023-02-21T08:20:29.613Z,11.47
2023-02-21T08:21:31.977Z,11.49
2023-02-21T08:22:34.470Z,11.51
2023-02-21T08:23:37.512Z,11.54
2023-02-21T08:24:39.934Z,11.56
2023-02-21T08:25:42.325Z,11.59
2023-02-21T08:26:45.712Z,11.61
2023-02-21T08:27:53.633Z,11.63
2023-02-21T08:28:56.041Z,11.66
2023-02-21T08:29:58.422Z,11.67
2023-02-21T08:31:00.873Z,11.70
2023-02-21T08:32:03.373Z,11.72
2023-02-21T08:33:06.221Z,11.75
2023-02-21T08:34:08.937Z,11.78
2023-02-21T08:35:15.169Z,11.81
2023-02-21T08:36:17.511Z,11.84
2023-02-21T08:37:22.899Z,11.86
2023-02-21T08:38:27.554Z,11.89
2023-02-21T08:39:32.054Z,11.92
2023-02-21T08:40:34.458Z,11.95
2023-02-21T08:41:45.187Z,11.98
2023-02-21T08:42:52.071Z,12.02
2023-02-21T08:43:54.415Z,12.06
2023-02-21T08:44:59.279Z,12.10
2023-02-21T08:46:02.895Z,12.14
2023-02-21T08:47:05.244Z,12.19
2023-02-21T08:48:07.785Z,12.23
2023-02-21T08:49:10.849Z,12.28
2023-02-21T08:50:13.650Z,12.32
2023-02-21T08:51:16.398Z,12.36
2023-02-21T08:52:21.293Z,12.40
2023-02-21T08:53:23.760Z,12.43
2023-02-21T08:54:26.144Z,12.46
2023-02-21T08:55:28.556Z,12.50
2023-02-21T08:56:31.108Z,12.54
2023-02-21T08:57:34.757Z,12.57
2023-02-21T08:58:38.067Z,12.61
2023-02-21T08:59:42.825Z,12.65
2023-02-21T09:00:45.301Z,12.68
2023-02-21T09:01:47.786Z,12.72
2023-02-21T09:02:51.604Z,12.76
2023-02-21T09:03:53.983Z,12.81
2023-02-21T09:04:56.394Z,12.86
2023-02-21T09:05:59.648Z,12.89
2023-02-21T09:07:01.954Z,12.92
2023-02-21T09:08:05.395Z,12.94
2023-02-21T09:09:07.813Z,12.97
2023-02-21T09:10:11.728Z,13.01
2023-02-21T09:11:14.475Z,13.05
2023-02-21T09:12:17.171Z,13.08
2023-02-21T09:13:19.600Z,13.11
2023-02-21T09:14:21.966Z,13.14
2023-02-21T09:15:24.481Z,13.18
2023-02-21T09:16:26.934Z,13.21
2023-02-21T09:17:29.341Z,13.25
2023-02-21T09:18:32.376Z,13.28
2023-02-21T09:19:35.277Z,13.30
2023-02-21T09:20:41.728Z,13.32
2023-02-21T09:21:48.173Z,13.35
2023-02-21T09:22:51.286Z,13.38
2023-02-21T09:23:55.082Z,13.40
2023-02-21T09:24:58.066Z,13.43
2023-02-21T09:26:00.545Z,13.47
2023-02-21T09:27:03.871Z,13.50
2023-02-21T09:28:06.233Z,13.55
2023-02-21T09:29:08.657Z,13.58
2023-02-21T09:30:21.723Z,13.62
2023-02-21T09:31:24.452Z,13.65
2023-02-21T09:32:28.872Z,13.68
2023-02-21T09:33:31.224Z,13.72
2023-02-21T09:34:33.591Z,13.74
2023-02-21T09:35:36.013Z,13.76
2023-02-21T09:36:38.414Z,13.79
2023-02-21T09:37:41.902Z,13.82
2023-02-21T09:38:47.179Z,13.88
2023-02-21T09:39:53.218Z,13.92
2023-02-21T09:41:01.360Z,13.96
2023-02-21T09:42:05.415Z,14.01
2023-02-21T09:43:16.476Z,14.04
2023-02-21T09:44:25.673Z,14.05
2023-02-21T09:45:33.764Z,14.06
2023-02-21T09:46:44.988Z,14.07
2023-02-21T09:47:50.243Z,14.10
2023-02-21T09:48:54.024Z,14.12
2023-02-21T09:50:04.203Z,14.13
2023-02-21T09:51:09.438Z,14.15
2023-02-21T09:52:32.407Z,14.15
2023-02-21T09:53:40.611Z,14.17
2023-02-21T09:54:47.910Z,14.20
2023-02-21T09:55:54.561Z,14.21
2023-02-21T09:57:00.214Z,14.22
2023-02-21T09:58:03.133Z,14.23
2023-02-21T09:59:11.738Z,14.15
2023-02-21T10:00:18.889Z,14.15
2023-02-21T10:01:33.262Z,14.17
2023-02-21T10:02:40.890Z,14.19
2023-02-21T10:04:04.987Z,14.20
2023-02-21T10:05:10.294Z,14.23
2023-02-21T10:06:23.216Z,14.25
2023-02-21T10:07:46.177Z,14.27
2023-02-21T10:09:29.487Z,14.28
2023-02-21T10:10:45.064Z,14.28
2023-02-21T10:12:06.299Z,14.28
2023-02-21T10:13:33.047Z,14.29
2023-02-21T10:14:41.577Z,14.29
2023-02-21T10:15:46.659Z,14.30
2023-02-21T10:16:56.944Z,14.32
2023-02-21T10:18:07.186Z,14.33
2023-02-21T10:19:19.801Z,14.35
2023-02-21T10:20:49.967Z,14.35
2023-02-21T10:21:54.642Z,14.37
2023-02-21T10:22:57.071Z,14.38
2023-02-21T10:24:04.947Z,14.39
2023-02-21T10:25:31.879Z,14.40
2023-02-21T10:26:41.229Z,14.43
2023-02-21T10:27:43.665Z,14.44
2023-02-21T10:28:46.282Z,14.45
2023-02-21T10:29:55.653Z,14.47
2023-02-21T10:31:02.738Z,14.49
2023-02-21T10:32:05.985Z,14.52
2023-02-21T10:33:11.443Z,14.55
2023-02-21T10:34:27.254Z,14.57
2023-02-21T10:35:31.408Z,14.60
2023-02-21T10:36:43.003Z,14.62
2023-02-21T10:38:16.522Z,14.64
2023-02-21T10:39:24.880Z,14.66
2023-02-21T10:40:37.049Z,14.66
2023-02-21T10:41:41.354Z,14.67
2023-02-21T10:42:57.305Z,14.67
2023-02-21T10:44:34.243Z,14.68
2023-02-21T10:45:47.935Z,14.68
2023-02-21T10:47:01.672Z,14.71
2023-02-21T10:48:10.322Z,14.73
2023-02-21T10:49:29.770Z,14.76
2023-02-21T10:50:59.652Z,14.78
2023-02-21T10:52:14.089Z,14.80
2023-02-21T10:53:33.313Z,14.81
2023-02-21T10:54:36.116Z,14.82
2023-02-21T10:55:38.618Z,14.81
2023-02-21T10:56:42.123Z,14.82
2023-02-21T10:57:47.632Z,14.84
2023-02-21T10:59:07.424Z,14.86
2023-02-21T11:00:19.796Z,14.88
2023-02-21T11:01:30.494Z,14.90
2023-02-21T11:02:36.700Z,14.93
2023-02-21T11:03:45.138Z,14.95
2023-02-21T11:04:47.655Z,14.97
2023-02-21T11:05:51.818Z,14.99
2023-02-21T11:07:06.565Z,15.02
2023-02-21T11:08:09.896Z,15.05
2023-02-21T11:09:48.530Z,15.08
2023-02-21T11:10:55.524Z,15.10
2023-02-21T11:12:06.520Z,15.11
2023-02-21T11:13:16.563Z,15.13
2023-02-21T11:14:19.000Z,15.15
2023-02-21T11:15:21.485Z,15.18
2023-02-21T11:16:24.689Z,15.19
2023-02-21T11:17:28.952Z,15.20
2023-02-21T11:18:31.442Z,15.22
2023-02-21T11:19:49.048Z,15.23
2023-02-21T11:20:53.589Z,15.26
2023-02-21T11:21:57.128Z,15.27
2023-02-21T11:22:59.799Z,15.29
2023-02-21T11:24:07.964Z,15.32
2023-02-21T11:25:32.592Z,15.35
2023-02-21T11:26:49.825Z,15.37
2023-02-21T11:28:06.608Z,15.39
2023-02-21T11:29:13.390Z,15.40
2023-02-21T11:30:23.360Z,15.43
2023-02-21T11:31:31.736Z,15.46
2023-02-21T11:32:42.728Z,15.48
2023-02-21T11:34:06.369Z,15.49
2023-02-21T11:35:20.903Z,15.50
2023-02-21T11:36:39.092Z,15.51
2023-02-21T11:37:57.745Z,15.52
2023-02-21T11:39:06.540Z,15.53
2023-02-21T11:40:33.664Z,15.54
2023-02-21T11:41:48.979Z,15.54
2023-02-21T11:42:51.730Z,15.54
2023-02-21T11:43:55.552Z,15.54
2023-02-21T11:45:18.823Z,15.55
2023-02-21T11:46:41.674Z,15.58
2023-02-21T11:47:54.199Z,15.59
2023-02-21T11:49:19.466Z,15.60
2023-02-21T11:50:26.690Z,15.62
2023-02-21T11:51:46.940Z,15.63
2023-02-21T11:53:06.754Z,15.63
2023-02-21T11:54:09.477Z,15.64
2023-02-21T11:55:19.560Z,15.65
2023-02-21T11:56:32.902Z,15.65
2023-02-21T11:57:53.481Z,15.65
2023-02-21T11:59:09.070Z,15.66
2023-02-21T12:00:29.955Z,15.66
2023-02-21T12:02:07.554Z,15.67
2023-02-21T12:03:32.123Z,15.69
2023-02-21T12:04:52.671Z,15.69
2023-02-21T12:06:01.341Z,15.70
2023-02-21T12:07:16.181Z,15.71
2023-02-21T12:08:18.502Z,15.72
2023-02-21T12:09:30.170Z,15.72
2023-02-21T12:10:52.571Z,15.72
2023-02-21T12:12:16.873Z,15.72
2023-02-21T12:13:33.684Z,15.72
2023-02-21T12:15:26.573Z,15.72
2023-02-21T12:16:32.057Z,15.69
2023-02-21T12:17:41.269Z,15.70
2023-02-21T12:19:05.918Z,15.70
2023-02-21T12:20:25.053Z,15.69
2023-02-21T12:22:08.924Z,15.70
2023-02-21T12:23:27.117Z,15.71
2023-02-21T12:25:02.944Z,15.71
2023-02-21T12:26:08.142Z,15.72
2023-02-21T12:27:23.226Z,15.71
2023-02-21T12:28:35.087Z,15.72
2023-02-21T12:29:47.243Z,15.72
2023-02-21T12:31:27.536Z,15.73
2023-02-21T12:33:11.260Z,15.73
2023-02-21T12:34:38.364Z,15.71
2023-02-21T12:36:13.882Z,15.72
2023-02-21T12:37:24.135Z,15.72
2023-02-21T12:38:46.726Z,15.71
2023-02-21T12:40:44.662Z,15.71
2023-02-21T12:41:56.725Z,15.70
2023-02-21T12:43:32.708Z,15.70
2023-02-21T12:45:04.314Z,15.69
2023-02-21T12:46:34.892Z,15.67
2023-02-21T12:47:54.733Z,15.66
2023-02-21T12:49:13.874Z,15.64
2023-02-21T12:50:22.632Z,15.61
2023-02-21T12:51:30.650Z,15.60
2023-02-21T12:53:16.624Z,15.60
2023-02-21T12:54:24.330Z,15.58
2023-02-21T12:55:38.614Z,15.58
2023-02-21T12:56:46.546Z,15.58
2023-02-21T12:57:54.122Z,15.59
2023-02-21T12:59:11.234Z,15.60
2023-02-21T13:01:22.250Z,15.60
2023-02-21T13:02:40.315Z,15.59
2023-02-21T13:03:53.724Z,15.58
2023-02-21T13:05:34.082Z,15.59
2023-02-21T13:06:52.340Z,15.61
2023-02-21T13:08:07.767Z,15.61
2023-02-21T13:09:23.680Z,15.60
2023-02-21T13:10:32.357Z,15.60
2023-02-21T13:11:45.657Z,15.60
2023-02-21T13:13:03.314Z,15.61
2023-02-21T13:14:21.855Z,15.60
2023-02-21T13:15:28.138Z,15.60
2023-02-21T13:17:03.121Z,15.61
2023-02-21T13:18:11.417Z,15.60
2023-02-21T13:26:13.049Z,15.58
2023-02-21T13:27:37.375Z,15.58
2023-02-21T13:28:41.630Z,15.59
2023-02-21T13:29:48.151Z,15.58
2023-02-21T13:30:55.026Z,15.58
2023-02-21T13:35:00.291Z,15.59
2023-02-21T13:36:41.863Z,15.60
2023-02-21T13:37:46.963Z,15.61
2023-02-21T13:39:02.068Z,15.62
2023-02-21T13:40:23.764Z,15.62
2023-02-21T13:41:33.965Z,15.62
2023-02-21T13:42:39.022Z,15.61
2023-02-21T13:43:50.579Z,15.61
2023-02-21T13:45:21.946Z,15.60
2023-02-21T13:46:46.770Z,15.58
2023-02-21T13:47:58.886Z,15.58
2023-02-21T13:49:38.148Z,15.57
2023-02-21T13:50:48.001Z,15.55
2023-02-21T13:51:56.350Z,15.52
2023-02-21T13:53:23.342Z,15.50
2023-02-21T13:54:25.811Z,15.50
2023-02-21T13:55:29.836Z,15.51
2023-02-21T13:56:43.524Z,15.52
2023-02-21T13:57:46.772Z,15.52
2023-02-21T13:58:49.736Z,15.51
2023-02-21T13:59:52.194Z,15.50
2023-02-21T14:00:54.948Z,15.50
2023-02-21T14:02:17.779Z,15.49
2023-02-21T14:03:38.024Z,15.51
2023-02-21T14:04:57.153Z,15.52
2023-02-21T14:05:59.692Z,15.52
2023-02-21T14:07:02.890Z,15.52
2023-02-21T14:08:08.638Z,15.52
2023-02-21T14:09:16.863Z,15.51
2023-02-21T14:10:28.115Z,15.51
2023-02-21T14:11:37.903Z,15.51
2023-02-21T14:13:36.922Z,15.50
2023-02-21T14:17:32.437Z,15.51
2023-02-21T14:18:40.631Z,15.49
2023-02-21T14:19:47.851Z,15.49
2023-02-21T14:20:53.528Z,15.48
2023-02-21T14:22:16.228Z,15.48
2023-02-21T14:23:23.198Z,15.48
2023-02-21T14:24:30.879Z,15.47
2023-02-21T14:25:35.398Z,15.46
2023-02-21T14:26:45.810Z,15.45
2023-02-21T14:27:48.255Z,15.44
2023-02-21T14:28:59.234Z,15.42
2023-02-21T14:30:01.618Z,15.41
2023-02-21T14:31:04.049Z,15.40
2023-02-21T14:32:09.633Z,15.39
2023-02-21T14:33:24.696Z,15.39
2023-02-21T14:34:48.151Z,15.38
2023-02-21T14:36:04.638Z,15.38
2023-02-21T14:37:51.056Z,15.38
2023-02-21T14:38:54.212Z,15.37
2023-02-21T14:40:00.948Z,15.36
2023-02-21T14:41:37.663Z,15.34
2023-02-21T14:43:17.548Z,15.32
2023-02-21T14:44:54.638Z,15.30
2023-02-21T14:46:30.798Z,15.28
2023-02-21T14:47:48.078Z,15.26
2023-02-21T14:49:12.257Z,15.24
2023-02-21T14:50:32.632Z,15.22
2023-02-21T14:51:46.382Z,15.20
2023-02-21T14:53:10.500Z,15.18
2023-02-21T14:54:50.717Z,15.16
2023-02-21T14:56:05.186Z,15.15
2023-02-21T14:57:27.626Z,15.14
2023-02-21T14:58:53.237Z,15.11
2023-02-21T15:00:00.166Z,15.08
2023-02-21T15:01:29.965Z,15.07
2023-02-21T15:03:02.027Z,15.05
2023-02-21T15:04:19.601Z,15.03
2023-02-21T15:05:29.321Z,15.00
2023-02-21T15:06:33.629Z,14.99
2023-02-21T15:07:56.704Z,14.97
2023-02-21T15:09:12.058Z,14.94
2023-02-21T15:10:22.687Z,14.92
2023-02-21T15:11:33.723Z,14.90
2023-02-21T15:12:42.139Z,14.88
2023-02-21T15:13:44.847Z,14.87
2023-02-21T15:14:55.295Z,14.85
2023-02-21T15:16:10.207Z,14.84
2023-02-21T15:17:18.548Z,14.83
2023-02-21T15:18:29.703Z,14.82
2023-02-21T15:19:35.361Z,14.81
2023-02-21T15:20:40.781Z,14.79
2023-02-21T15:21:43.106Z,14.76
2023-02-21T15:22:45.611Z,14.75
2023-02-21T15:24:01.026Z,14.73
2023-02-21T15:25:09.605Z,14.70
2023-02-21T15:26:24.400Z,14.69
2023-02-21T15:27:26.867Z,14.66
2023-02-21T15:28:31.578Z,14.64
2023-02-21T15:29:34.019Z,14.63
2023-02-21T15:30:41.434Z,14.61
2023-02-21T15:31:48.851Z,14.60
2023-02-21T15:33:06.597Z,14.58
2023-02-21T15:34:21.577Z,14.56
2023-02-21T15:35:31.080Z,14.55
2023-02-21T15:36:33.856Z,14.53
2023-02-21T15:37:39.618Z,14.52